Time;durP1;ratioP1;P1;durP2;ratioP2;P2;SDS_P1;SDS_P2;PMS_P1;PMS_P2;Temp;Humidity;BMP_temperature;BMP_pressure;BME280_temperature;BME280_humidity;BME280_pressure;Samples;Min_cycle;Max_cycle;Signal;HPM_P1;HPM_P2
2023/01/07 00:01:29;;;;;;;3.17;2.42;;;10.10;99.90;;;;;;5053236;28;20040;-67
2023/01/07 00:03:56;;;;;;;3.42;2.67;;;10.10;99.90;;;;;;5053646;28;20371;-67
2023/01/07 00:06:25;;;;;;;4.75;2.83;;;10.10;99.90;;;;;;5053291;28;20055;-67
2023/01/07 00:08:52;;;;;;;3.88;2.50;;;10.10;99.90;;;;;;5053771;28;20104;-67
2023/01/07 00:11:21;;;;;;;3.28;2.42;;;10.00;99.90;;;;;;5051975;28;20448;-67
2023/01/07 00:13:49;;;;;;;3.78;2.67;;;10.00;99.90;;;;;;5053421;28;20117;-67
2023/01/07 00:16:17;;;;;;;3.75;2.33;;;10.00;99.90;;;;;;5053324;28;20032;-68
2023/01/07 00:18:44;;;;;;;3.13;2.53;;;10.00;99.90;;;;;;5053692;28;20036;-67
2023/01/07 00:21:12;;;;;;;3.38;2.28;;;10.00;99.90;;;;;;5053281;28;20504;-67
2023/01/07 00:23:40;;;;;;;4.20;2.25;;;10.00;99.90;;;;;;5053762;28;20445;-67
2023/01/07 00:26:13;;;;;;;3.42;2.83;;;10.00;99.90;;;;;;5052927;28;20025;-68
2023/01/07 00:28:40;;;;;;;3.42;2.50;;;10.00;99.90;;;;;;5053080;28;20470;-67
2023/01/07 00:31:07;;;;;;;4.55;2.70;;;10.00;99.90;;;;;;5053024;28;20082;-68
2023/01/07 00:33:42;;;;;;;3.80;2.35;;;10.00;99.90;;;;;;5053108;28;20029;-67
2023/01/07 00:36:09;;;;;;;4.05;2.70;;;9.90;99.90;;;;;;5053054;28;20109;-67
2023/01/07 00:38:37;;;;;;;3.75;2.80;;;10.00;99.90;;;;;;5053531;28;20021;-67
2023/01/07 00:41:04;;;;;;;3.50;2.33;;;10.00;99.90;;;;;;5051815;28;20053;-67
2023/01/07 00:43:29;;;;;;;3.30;2.50;;;9.90;99.90;;;;;;5052727;28;20033;-67
2023/01/07 00:45:55;;;;;;;5.57;2.75;;;9.90;99.90;;;;;;5053137;28;20527;-67
2023/01/07 00:48:22;;;;;;;3.85;2.40;;;9.90;99.90;;;;;;5052747;28;20363;-68
2023/01/07 00:50:50;;;;;;;3.92;2.67;;;9.90;99.90;;;;;;5053018;28;20108;-67
2023/01/07 00:53:16;;;;;;;4.35;2.65;;;9.90;99.90;;;;;;5052255;28;20378;-67
2023/01/07 00:55:42;;;;;;;3.35;2.70;;;9.90;99.90;;;;;;5053248;28;20035;-67
2023/01/07 00:58:14;;;;;;;4.28;2.47;;;9.80;99.90;;;;;;5052564;28;20438;-67
2023/01/07 01:00:40;;;;;;;4.07;3.20;;;9.80;99.90;;;;;;5052940;28;20029;-67
2023/01/07 01:03:08;;;;;;;3.72;2.80;;;9.80;99.90;;;;;;5052879;28;20029;-67
2023/01/07 01:05:33;;;;;;;4.45;3.03;;;9.80;99.90;;;;;;5051768;28;20033;-67
2023/01/07 01:07:59;;;;;;;5.88;2.50;;;9.80;99.90;;;;;;5052867;28;20074;-67
2023/01/07 01:10:26;;;;;;;4.32;2.75;;;9.80;99.90;;;;;;5052445;28;20029;-67
2023/01/07 01:12:52;;;;;;;3.55;2.58;;;9.80;99.90;;;;;;5052665;28;20124;-67
2023/01/07 01:15:18;;;;;;;3.83;3.00;;;9.80;99.90;;;;;;5052692;28;20440;-67
2023/01/07 01:17:43;;;;;;;3.30;2.83;;;9.80;99.90;;;;;;5052418;28;20104;-67
2023/01/07 01:20:12;;;;;;;12.98;2.80;;;9.80;99.90;;;;;;5052353;28;20079;-69
2023/01/07 01:22:38;;;;;;;5.40;3.42;;;9.80;99.90;;;;;;5052796;28;20033;-67
2023/01/07 01:25:04;;;;;;;6.03;3.50;;;9.80;99.90;;;;;;5052423;28;20465;-67
2023/01/07 01:27:30;;;;;;;4.63;3.20;;;9.80;99.90;;;;;;5051966;28;20033;-67
2023/01/07 01:29:57;;;;;;;3.60;2.92;;;9.80;99.90;;;;;;5052493;28;20029;-67
2023/01/07 01:32:22;;;;;;;5.07;3.10;;;9.80;99.90;;;;;;5052043;28;20044;-67
2023/01/07 01:34:48;;;;;;;4.05;3.50;;;9.90;99.90;;;;;;5052618;28;20029;-65
2023/01/07 01:37:14;;;;;;;6.50;4.38;;;9.80;99.90;;;;;;5052233;28;20025;-66
2023/01/07 01:39:40;;;;;;;6.15;3.70;;;9.80;99.90;;;;;;5053201;28;20130;-67
2023/01/07 01:42:05;;;;;;;5.35;3.80;;;9.90;99.90;;;;;;5056669;28;20355;-67
2023/01/07 01:44:36;;;;;;;7.22;3.45;;;9.90;99.90;;;;;;5055996;28;20033;-67
2023/01/07 01:47:14;;;;;;;4.50;3.53;;;9.90;99.90;;;;;;5056595;28;20025;-67
2023/01/07 01:49:46;;;;;;;5.22;3.10;;;9.90;99.90;;;;;;5056537;28;20064;-67
2023/01/07 01:52:16;;;;;;;5.32;3.28;;;9.90;99.90;;;;;;5056048;28;20073;-68
2023/01/07 01:54:47;;;;;;;4.40;3.38;;;9.90;99.90;;;;;;5056151;28;20075;-67
2023/01/07 01:57:16;;;;;;;8.20;4.57;;;9.90;99.90;;;;;;5056094;28;20030;-68
2023/01/07 01:59:45;;;;;;;6.53;4.53;;;9.90;99.90;;;;;;5056045;28;20078;-67
2023/01/07 02:02:13;;;;;;;5.80;3.80;;;9.90;99.90;;;;;;5056517;28;20036;-67
2023/01/07 02:04:39;;;;;;;7.70;4.25;;;9.90;99.90;;;;;;5053762;28;20021;-67
2023/01/07 02:07:15;;;;;;;8.75;4.18;;;9.90;99.90;;;;;;5055953;28;20458;-67
2023/01/07 02:09:40;;;;;;;6.97;4.35;;;9.90;99.90;;;;;;5053774;28;20044;-67
2023/01/07 02:12:06;;;;;;;8.82;5.43;;;9.90;99.90;;;;;;5056019;28;20373;-67
2023/01/07 02:15:09;;;;;;;8.02;5.22;;;9.90;99.90;;;;;;5055568;28;20068;-67
2023/01/07 02:18:10;;;;;;;5.97;4.65;;;9.90;99.90;;;;;;5055630;28;20039;-67
2023/01/07 02:20:48;;;;;;;5.97;4.20;;;9.90;99.90;;;;;;5042020;28;20112;-67
2023/01/07 02:23:25;;;;;;;6.95;4.40;;;9.90;99.90;;;;;;5055528;28;20110;-71
2023/01/07 02:26:18;;;;;;;5.25;4.00;;;9.90;99.90;;;;;;5055741;28;20025;-66
2023/01/07 02:29:21;;;;;;;6.88;3.97;;;9.90;99.90;;;;;;5055764;28;20096;-67
2023/01/07 02:32:23;;;;;;;4.10;3.45;;;9.90;99.90;;;;;;5055702;28;20524;-66
2023/01/07 02:35:20;;;;;;;4.55;3.53;;;9.90;99.90;;;;;;5055820;28;20025;-66
2023/01/07 02:37:55;;;;;;;3.88;3.47;;;9.90;99.90;;;;;;5055434;28;20029;-67
2023/01/07 02:40:42;;;;;;;4.65;3.10;;;10.00;99.90;;;;;;5055420;28;20406;-68
2023/01/07 02:43:20;;;;;;;6.22;3.40;;;10.00;99.90;;;;;;5057191;28;20033;-67
2023/01/07 02:46:09;;;;;;;4.00;2.72;;;10.00;99.90;;;;;;5057210;28;20083;-67
2023/01/07 02:48:36;;;;;;;5.25;3.30;;;10.00;99.90;;;;;;5056333;28;20363;-68
2023/01/07 02:51:02;;;;;;;5.10;3.50;;;10.00;99.90;;;;;;5057479;28;20048;-67
2023/01/07 02:53:28;;;;;;;4.95;3.22;;;10.10;99.90;;;;;;5057051;28;20470;-67
2023/01/07 02:55:54;;;;;;;5.53;3.67;;;10.10;99.90;;;;;;5056580;28;20021;-67
2023/01/07 02:58:32;;;;;;;3.92;3.53;;;10.10;99.90;;;;;;5055075;28;20083;-68
2023/01/07 03:01:23;;;;;;;4.13;3.38;;;10.10;99.90;;;;;;5054868;28;20453;-67
2023/01/07 03:04:07;;;;;;;4.28;3.60;;;10.10;99.90;;;;;;5055519;28;20029;-66
2023/01/07 03:06:58;;;;;;;4.32;3.05;;;10.10;99.90;;;;;;5054441;28;20035;-66
2023/01/07 03:09:54;;;;;;;6.22;3.45;;;10.10;99.90;;;;;;5054673;28;20029;-68
2023/01/07 03:12:25;;;;;;;5.63;3.72;;;10.10;99.90;;;;;;5054563;28;20063;-68
2023/01/07 03:15:01;;;;;;;5.55;3.40;;;10.10;99.90;;;;;;5054863;28;20078;-67
2023/01/07 03:17:40;;;;;;;4.57;3.60;;;10.10;99.90;;;;;;5054845;28;20036;-67
2023/01/07 03:20:08;;;;;;;5.10;3.65;;;10.10;99.90;;;;;;5054859;28;20462;-67
2023/01/07 03:22:36;;;;;;;7.82;3.60;;;10.10;99.90;;;;;;5054337;28;20377;-67
2023/01/07 03:25:04;;;;;;;5.57;3.50;;;10.10;99.90;;;;;;5055067;28;20028;-66
2023/01/07 03:27:33;;;;;;;4.72;3.65;;;10.10;99.90;;;;;;5054241;28;20028;-66
2023/01/07 03:30:03;;;;;;;4.60;3.67;;;10.10;99.90;;;;;;5054565;28;20059;-66
2023/01/07 03:32:40;;;;;;;4.65;3.80;;;10.10;99.90;;;;;;5054097;28;20033;-68
2023/01/07 03:35:06;;;;;;;5.75;3.88;;;10.10;99.90;;;;;;5054288;28;20029;-66
2023/01/07 03:37:33;;;;;;;4.35;3.88;;;10.20;99.90;;;;;;5053975;28;20029;-67
2023/01/07 03:40:02;;;;;;;4.65;3.55;;;10.20;99.90;;;;;;5053840;28;20532;-67
2023/01/07 03:42:39;;;;;;;5.57;4.10;;;10.20;99.90;;;;;;5053944;28;20033;-67
2023/01/07 03:45:18;;;;;;;5.95;4.32;;;10.20;99.90;;;;;;5054410;28;20083;-67
2023/01/07 03:47:46;;;;;;;5.95;4.47;;;10.10;99.90;;;;;;5053954;28;20044;-67
2023/01/07 03:50:13;;;;;;;5.07;3.92;;;10.20;99.90;;;;;;5054148;28;20024;-68
2023/01/07 03:52:39;;;;;;;5.65;3.75;;;10.20;99.90;;;;;;5053780;28;20112;-67
2023/01/07 03:55:05;;;;;;;7.95;4.03;;;10.10;99.90;;;;;;5054105;28;20122;-67
2023/01/07 03:57:31;;;;;;;4.28;3.67;;;10.20;99.90;;;;;;5053773;28;20147;-67
2023/01/07 03:59:57;;;;;;;4.90;3.60;;;10.20;99.90;;;;;;5053964;28;20021;-67
2023/01/07 04:02:23;;;;;;;4.00;3.63;;;10.20;99.90;;;;;;5052892;28;20128;-68
2023/01/07 04:04:49;;;;;;;4.93;3.95;;;10.20;99.90;;;;;;5053445;28;20033;-67
2023/01/07 04:07:14;;;;;;;5.25;3.97;;;10.20;99.90;;;;;;5053804;28;20025;-68
2023/01/07 04:09:40;;;;;;;6.40;4.30;;;10.20;99.90;;;;;;5052113;28;20246;-67
2023/01/07 04:12:06;;;;;;;5.65;3.97;;;10.10;99.90;;;;;;5053757;28;20059;-67
2023/01/07 04:14:32;;;;;;;4.18;3.45;;;10.20;99.90;;;;;;5053358;28;20071;-67
2023/01/07 04:16:57;;;;;;;6.15;3.88;;;10.20;99.90;;;;;;5053166;28;20028;-67
2023/01/07 04:19:23;;;;;;;4.82;3.47;;;10.20;99.90;;;;;;5053174;28;20052;-68
2023/01/07 04:21:49;;;;;;;4.65;3.90;;;10.20;99.90;;;;;;5053412;28;20033;-67
2023/01/07 04:24:14;;;;;;;4.97;3.70;;;10.20;99.90;;;;;;5053521;28;20028;-67
2023/01/07 04:26:40;;;;;;;4.28;3.45;;;10.10;99.90;;;;;;5053087;28;20028;-66
2023/01/07 04:29:06;;;;;;;6.55;3.75;;;10.20;99.90;;;;;;5053740;28;20348;-66
2023/01/07 04:31:32;;;;;;;6.85;3.60;;;10.20;99.90;;;;;;5052934;28;20389;-66
2023/01/07 04:33:57;;;;;;;4.75;3.35;;;10.20;99.90;;;;;;5053671;28;20025;-66
2023/01/07 04:36:23;;;;;;;4.13;3.40;;;10.10;99.90;;;;;;5051808;28;20025;-69
2023/01/07 04:38:49;;;;;;;6.85;4.03;;;10.10;99.90;;;;;;5052983;28;20462;-67
2023/01/07 04:41:14;;;;;;;4.65;3.83;;;10.10;99.90;;;;;;5052961;28;20105;-66
2023/01/07 04:43:40;;;;;;;4.75;3.70;;;10.10;99.90;;;;;;5052458;28;20029;-66
2023/01/07 04:46:06;;;;;;;4.28;2.88;;;10.10;99.90;;;;;;5053118;28;20453;-68
2023/01/07 04:48:31;;;;;;;5.18;3.30;;;10.10;99.90;;;;;;5052985;28;20033;-68
2023/01/07 04:50:57;;;;;;;5.82;3.20;;;10.10;99.90;;;;;;5053163;28;20453;-66
2023/01/07 04:53:23;;;;;;;5.47;3.83;;;10.10;99.90;;;;;;5053091;28;20036;-67
2023/01/07 04:55:49;;;;;;;4.40;3.25;;;10.10;99.90;;;;;;5052715;28;20021;-68
2023/01/07 04:58:14;;;;;;;4.03;3.33;;;10.10;99.90;;;;;;5052796;28;20029;-67
2023/01/07 05:00:40;;;;;;;3.47;3.10;;;10.10;99.90;;;;;;5052587;28;20056;-68
2023/01/07 05:03:06;;;;;;;8.52;3.70;;;10.10;99.90;;;;;;5052693;28;20432;-67
2023/01/07 05:05:31;;;;;;;3.97;3.58;;;10.10;99.90;;;;;;5052509;28;20017;-68
2023/01/07 05:07:57;;;;;;;4.78;3.67;;;10.10;99.90;;;;;;5053099;28;20056;-66
2023/01/07 05:10:23;;;;;;;6.53;3.40;;;10.00;99.90;;;;;;5052550;28;20032;-66
2023/01/07 05:12:48;;;;;;;5.78;3.33;;;10.00;99.90;;;;;;5052248;28;20029;-66
2023/01/07 05:15:14;;;;;;;7.20;3.97;;;10.00;99.90;;;;;;5052754;28;20032;-66
2023/01/07 05:17:40;;;;;;;4.40;3.25;;;10.00;99.90;;;;;;5052631;28;20028;-66
2023/01/07 05:20:07;;;;;;;5.20;3.42;;;10.00;99.90;;;;;;5052683;28;20032;-66
2023/01/07 05:22:33;;;;;;;5.30;3.85;;;10.00;99.90;;;;;;5052245;28;20083;-66
2023/01/07 05:24:59;;;;;;;4.07;3.38;;;10.00;99.90;;;;;;5052413;28;20433;-66
2023/01/07 05:27:24;;;;;;;4.20;3.47;;;10.10;99.90;;;;;;5052346;28;20074;-66
2023/01/07 05:29:50;;;;;;;4.68;3.42;;;10.00;99.90;;;;;;5051949;28;20025;-66
2023/01/07 05:32:16;;;;;;;4.60;3.10;;;10.00;99.90;;;;;;5052554;28;20116;-67
2023/01/07 05:34:41;;;;;;;4.47;3.05;;;10.00;99.90;;;;;;5052193;28;20025;-67
2023/01/07 05:37:07;;;;;;;3.60;3.20;;;10.10;99.90;;;;;;5052577;28;20021;-67
2023/01/07 05:39:33;;;;;;;5.15;3.20;;;10.00;99.90;;;;;;5052143;28;20045;-67
2023/01/07 05:41:59;;;;;;;4.47;3.20;;;10.10;99.90;;;;;;5052573;28;20427;-67
2023/01/07 05:44:24;;;;;;;3.97;2.78;;;10.00;99.90;;;;;;5052215;28;20025;-66
2023/01/07 05:46:50;;;;;;;5.03;3.00;;;10.00;99.90;;;;;;5052348;28;20032;-66
2023/01/07 05:49:16;;;;;;;4.88;3.05;;;10.00;99.90;;;;;;5052423;28;20029;-66
2023/01/07 05:51:41;;;;;;;5.47;3.35;;;10.00;99.90;;;;;;5051657;28;20029;-66
2023/01/07 05:54:07;;;;;;;3.47;2.90;;;10.00;99.90;;;;;;5052343;28;20532;-67
2023/01/07 05:56:33;;;;;;;3.30;2.80;;;9.90;99.90;;;;;;5050849;28;20040;-67
2023/01/07 05:58:59;;;;;;;5.15;3.13;;;9.90;99.90;;;;;;5052443;28;20029;-67
2023/01/07 06:01:24;;;;;;;3.85;3.45;;;9.90;99.90;;;;;;5051620;28;20031;-67
2023/01/07 06:03:50;;;;;;;4.80;3.13;;;9.90;99.90;;;;;;5051857;28;20099;-67
2023/01/07 06:06:16;;;;;;;6.30;3.38;;;9.90;99.90;;;;;;5052078;28;20478;-67
2023/01/07 06:08:42;;;;;;;4.50;2.65;;;9.90;99.90;;;;;;5051499;28;20036;-67
2023/01/07 06:11:08;;;;;;;4.00;3.38;;;9.80;99.90;;;;;;5052117;28;20029;-67
2023/01/07 06:13:34;;;;;;;4.28;3.13;;;9.80;99.90;;;;;;5051790;28;20021;-67
2023/01/07 06:16:02;;;;;;;6.10;3.67;;;9.80;99.90;;;;;;5052272;28;20025;-67
2023/01/07 06:18:28;;;;;;;8.38;3.15;;;9.70;99.90;;;;;;5052245;28;20191;-67
2023/01/07 06:20:53;;;;;;;4.30;3.17;;;9.70;99.90;;;;;;5051424;28;20151;-67
2023/01/07 06:23:19;;;;;;;5.90;3.20;;;9.70;99.90;;;;;;5051798;28;20040;-66
2023/01/07 06:25:45;;;;;;;5.38;3.58;;;9.70;99.90;;;;;;5051142;28;20029;-66
2023/01/07 06:28:10;;;;;;;6.65;3.42;;;9.60;99.90;;;;;;5055927;28;20029;-66
2023/01/07 06:30:36;;;;;;;6.38;3.55;;;9.60;99.90;;;;;;5054130;28;20021;-66
2023/01/07 06:33:04;;;;;;;4.45;3.30;;;9.50;99.90;;;;;;5055351;28;20036;-67
2023/01/07 06:35:30;;;;;;;3.88;3.22;;;9.50;99.90;;;;;;5055652;28;20021;-66
2023/01/07 06:37:56;;;;;;;3.83;3.15;;;9.50;99.90;;;;;;5055191;28;20495;-68
2023/01/07 06:40:22;;;;;;;6.55;3.95;;;9.40;99.90;;;;;;5055641;28;20056;-68
2023/01/07 06:42:47;;;;;;;14.38;5.68;;;9.40;99.90;;;;;;5055237;28;20036;-67
2023/01/07 06:45:14;;;;;;;4.47;3.70;;;9.40;99.90;;;;;;5055076;28;20048;-67
2023/01/07 06:47:40;;;;;;;7.82;4.30;;;9.40;99.90;;;;;;5054982;28;20088;-67
2023/01/07 06:50:06;;;;;;;5.78;4.05;;;9.40;99.90;;;;;;5055490;28;20076;-67
2023/01/07 06:52:32;;;;;;;5.68;4.15;;;9.30;99.90;;;;;;5055116;28;20132;-67
2023/01/07 06:54:58;;;;;;;5.65;3.92;;;9.30;99.90;;;;;;5055044;28;20117;-68
2023/01/07 06:57:24;;;;;;;5.13;4.18;;;9.30;99.90;;;;;;5055278;28;20036;-67
2023/01/07 06:59:49;;;;;;;8.07;4.38;;;9.30;99.90;;;;;;5054601;28;20104;-67
2023/01/07 07:02:23;;;;;;;5.18;3.55;;;9.30;99.90;;;;;;5055146;28;20031;-67
2023/01/07 07:04:49;;;;;;;6.18;4.53;;;9.30;99.90;;;;;;5054686;28;20063;-67
2023/01/07 07:07:15;;;;;;;6.60;4.20;;;9.30;99.90;;;;;;5055110;28;20033;-67
2023/01/07 07:09:41;;;;;;;6.93;4.53;;;9.30;99.90;;;;;;5054621;28;20458;-67
2023/01/07 07:12:07;;;;;;;8.23;4.68;;;9.30;99.90;;;;;;5054531;28;20089;-66
2023/01/07 07:14:32;;;;;;;6.30;4.72;;;9.30;99.90;;;;;;5053631;28;20040;-67
2023/01/07 07:16:58;;;;;;;7.85;5.07;;;9.30;99.90;;;;;;5053159;28;20040;-67
2023/01/07 07:19:24;;;;;;;9.90;5.45;;;9.40;99.90;;;;;;5054806;28;20029;-67
2023/01/07 07:21:50;;;;;;;7.55;5.15;;;9.40;99.90;;;;;;5054402;28;20127;-68
2023/01/07 07:24:15;;;;;;;7.03;5.22;;;9.40;99.90;;;;;;5054914;28;20382;-67
2023/01/07 07:26:41;;;;;;;9.15;5.65;;;9.40;99.90;;;;;;5054269;28;20067;-67
2023/01/07 07:29:08;;;;;;;7.97;5.35;;;9.40;99.90;;;;;;5054373;28;20125;-67
2023/01/07 07:31:34;;;;;;;8.23;5.93;;;9.40;99.90;;;;;;5054476;28;20043;-67
2023/01/07 07:34:00;;;;;;;7.10;5.07;;;9.40;99.90;;;;;;5054247;28;20145;-66
2023/01/07 07:36:25;;;;;;;7.65;5.30;;;9.40;99.90;;;;;;5054158;28;20025;-67
2023/01/07 07:38:51;;;;;;;7.28;4.78;;;9.40;99.90;;;;;;5052850;28;20484;-67
2023/01/07 07:41:17;;;;;;;8.20;4.82;;;9.40;99.90;;;;;;5054536;28;20032;-66
2023/01/07 07:43:42;;;;;;;8.15;4.40;;;9.40;99.90;;;;;;5054205;28;20037;-67
2023/01/07 07:46:08;;;;;;;8.10;5.10;;;9.40;99.90;;;;;;5054302;28;20487;-66
2023/01/07 07:48:34;;;;;;;6.82;4.40;;;9.40;99.90;;;;;;5054324;28;20529;-67
2023/01/07 07:50:59;;;;;;;6.95;4.65;;;9.40;99.90;;;;;;5053811;28;20350;-67
2023/01/07 07:53:25;;;;;;;5.57;4.60;;;9.40;99.90;;;;;;5052660;28;20488;-66
2023/01/07 07:55:52;;;;;;;5.45;4.63;;;9.40;99.90;;;;;;5053667;28;20071;-66
2023/01/07 07:58:18;;;;;;;7.00;4.50;;;9.40;99.90;;;;;;5053944;28;20112;-67
2023/01/07 08:00:44;;;;;;;8.93;4.82;;;9.30;99.90;;;;;;5053293;28;20143;-68
2023/01/07 08:03:10;;;;;;;8.25;3.97;;;9.30;99.90;;;;;;5053898;28;20116;-66
2023/01/07 08:05:40;;;;;;;4.32;3.58;;;9.30;99.90;;;;;;5054206;28;20048;-68
2023/01/07 08:08:08;;;;;;;5.10;3.72;;;9.30;99.90;;;;;;5053617;28;20044;-67
2023/01/07 08:10:34;;;;;;;7.05;3.75;;;9.30;99.90;;;;;;5052566;28;20112;-67
2023/01/07 08:13:00;;;;;;;5.65;3.65;;;9.40;99.90;;;;;;5052934;28;20533;-67
2023/01/07 08:15:26;;;;;;;5.90;3.85;;;9.40;99.90;;;;;;5053970;28;20032;-67
2023/01/07 08:18:05;;;;;;;5.18;3.35;;;9.40;99.90;;;;;;5053250;28;20029;-66
2023/01/07 08:20:32;;;;;;;8.35;3.80;;;9.40;99.90;;;;;;5053537;28;20029;-66
2023/01/07 08:22:59;;;;;;;7.72;3.95;;;9.40;99.90;;;;;;5052804;28;20060;-67
2023/01/07 08:25:26;;;;;;;8.30;3.90;;;9.40;99.90;;;;;;5053912;28;20104;-67
2023/01/07 08:27:54;;;;;;;8.52;4.32;;;9.40;99.90;;;;;;5053144;28;20040;-67
2023/01/07 08:30:20;;;;;;;6.07;3.95;;;9.40;99.90;;;;;;5053326;28;20029;-67
2023/01/07 08:32:46;;;;;;;8.65;4.57;;;9.50;99.90;;;;;;5052913;28;20071;-67
2023/01/07 08:35:12;;;;;;;8.70;6.07;;;9.50;99.90;;;;;;5053331;28;20060;-67
2023/01/07 08:37:37;;;;;;;15.32;5.70;;;9.50;99.90;;;;;;5053279;28;20525;-67
2023/01/07 08:40:04;;;;;;;4.93;3.38;;;9.60;99.90;;;;;;5052834;28;20052;-67
2023/01/07 08:42:30;;;;;;;4.45;3.22;;;9.70;99.90;;;;;;5053363;28;20121;-67
2023/01/07 08:44:56;;;;;;;3.45;2.63;;;9.70;99.90;;;;;;5052500;28;20131;-67
2023/01/07 08:47:21;;;;;;;2.97;2.42;;;9.70;99.90;;;;;;5053409;28;20079;-67
2023/01/07 08:49:47;;;;;;;5.25;3.00;;;9.70;99.90;;;;;;5052528;28;20028;-68
2023/01/07 08:52:13;;;;;;;4.43;2.70;;;9.80;99.90;;;;;;5052729;28;20028;-67
2023/01/07 08:54:39;;;;;;;3.97;2.42;;;9.80;99.90;;;;;;5052702;28;20037;-67
2023/01/07 08:57:04;;;;;;;6.90;3.05;;;9.80;99.90;;;;;;5052295;28;20032;-67
2023/01/07 08:59:30;;;;;;;3.38;2.72;;;9.80;99.90;;;;;;5053174;28;20032;-66
2023/01/07 09:01:56;;;;;;;5.10;2.75;;;9.90;99.90;;;;;;5052318;28;20029;-67
2023/01/07 09:04:22;;;;;;;4.25;2.00;;;9.90;99.90;;;;;;5052670;28;20140;-66
2023/01/07 09:06:47;;;;;;;3.28;2.33;;;9.90;99.90;;;;;;5052205;28;20040;-68
2023/01/07 09:09:15;;;;;;;3.00;2.47;;;10.00;99.90;;;;;;5052642;28;20490;-67
2023/01/07 09:11:41;;;;;;;2.70;1.88;;;10.00;99.90;;;;;;5052531;28;20440;-67
2023/01/07 09:14:07;;;;;;;3.20;2.40;;;10.10;99.90;;;;;;5051952;28;20374;-67
2023/01/07 09:16:32;;;;;;;6.15;2.60;;;10.10;99.90;;;;;;5052497;28;20168;-67
2023/01/07 09:18:58;;;;;;;2.63;1.95;;;10.20;99.90;;;;;;5052325;28;20090;-66
2023/01/07 09:21:24;;;;;;;2.33;1.92;;;10.20;99.90;;;;;;5052590;28;20425;-66
2023/01/07 09:23:49;;;;;;;8.50;2.05;;;10.30;99.70;;;;;;5052153;28;20494;-67
2023/01/07 09:26:15;;;;;;;3.15;2.10;;;10.40;99.40;;;;;;5052850;28;20108;-68
2023/01/07 09:28:41;;;;;;;2.28;1.90;;;10.50;98.80;;;;;;5052306;28;20064;-67
2023/01/07 09:31:06;;;;;;;2.63;2.15;;;10.60;98.30;;;;;;5050796;28;20068;-67
2023/01/07 09:33:33;;;;;;;4.25;2.83;;;10.70;97.90;;;;;;5052347;28;20025;-68
2023/01/07 09:35:59;;;;;;;2.65;2.30;;;10.80;97.30;;;;;;5052011;28;20095;-67
2023/01/07 09:38:24;;;;;;;4.18;3.17;;;10.90;97.00;;;;;;5052244;28;20017;-67
2023/01/07 09:40:50;;;;;;;2.90;2.33;;;11.00;96.80;;;;;;5052075;28;20056;-67
2023/01/07 09:43:40;;;;;;;5.25;2.58;;;11.00;96.50;;;;;;5052263;28;20029;-68
2023/01/07 09:46:08;;;;;;;3.20;1.90;;;11.10;95.70;;;;;;5051889;28;20032;-66
2023/01/07 09:48:40;;;;;;;2.35;1.83;;;11.10;94.80;;;;;;5052440;28;20163;-67
2023/01/07 09:51:27;;;;;;;2.42;1.85;;;11.10;95.00;;;;;;5052144;28;20374;-66
2023/01/07 09:53:55;;;;;;;2.72;1.92;;;11.10;94.20;;;;;;5051226;28;20119;-68
2023/01/07 09:56:27;;;;;;;2.97;1.98;;;11.10;94.20;;;;;;5052237;28;20029;-67
2023/01/07 09:58:54;;;;;;;2.50;1.77;;;11.00;93.50;;;;;;5051973;28;20029;-67
2023/01/07 10:01:44;;;;;;;3.28;2.00;;;11.10;93.80;;;;;;5053926;28;20028;-68
2023/01/07 10:04:28;;;;;;;2.42;2.00;;;11.10;93.80;;;;;;5055930;28;20029;-67
2023/01/07 10:07:00;;;;;;;2.47;1.65;;;11.10;93.50;;;;;;5053704;28;20021;-67
2023/01/07 10:09:26;;;;;;;3.33;1.67;;;11.10;93.40;;;;;;5036426;28;20048;-67
2023/01/07 10:11:54;;;;;;;2.45;1.73;;;11.10;93.40;;;;;;5035636;28;20450;-66
2023/01/07 10:14:44;;;;;;;2.72;1.80;;;11.10;93.40;;;;;;5035809;28;20039;-67
2023/01/07 10:17:38;;;;;;;1.97;1.53;;;11.20;93.40;;;;;;5055026;28;20074;-67
2023/01/07 10:20:18;;;;;;;2.45;1.88;;;11.20;93.40;;;;;;5054424;28;20068;-67
2023/01/07 10:22:56;;;;;;;2.22;2.03;;;11.30;93.50;;;;;;5055991;28;20029;-69
2023/01/07 10:25:30;;;;;;;2.65;1.60;;;11.30;93.30;;;;;;5056008;28;20056;-67
2023/01/07 10:28:03;;;;;;;2.90;1.90;;;11.30;93.10;;;;;;5054258;28;20035;-68
2023/01/07 10:30:33;;;;;;;6.57;3.47;;;11.40;93.20;;;;;;5054435;28;20025;-68
2023/01/07 10:33:16;;;;;;;3.78;2.15;;;11.40;92.80;;;;;;5054942;28;20068;-66
2023/01/07 10:35:43;;;;;;;2.58;1.70;;;11.40;93.00;;;;;;5054489;28;20025;-66
2023/01/07 10:38:17;;;;;;;2.90;1.80;;;11.40;93.30;;;;;;5055105;28;20037;-67
2023/01/07 10:40:50;;;;;;;2.17;1.70;;;11.40;92.60;;;;;;5054970;28;20119;-68
2023/01/07 10:43:35;;;;;;;2.72;1.80;;;11.40;92.60;;;;;;5055249;28;20121;-66
2023/01/07 10:46:17;;;;;;;2.70;1.65;;;11.40;92.60;;;;;;5055093;28;20374;-68
2023/01/07 10:49:20;;;;;;;2.42;1.95;;;11.40;92.50;;;;;;5055600;28;20343;-67
2023/01/07 10:52:16;;;;;;;2.50;2.00;;;11.40;92.90;;;;;;5055246;28;20037;-68
2023/01/07 10:55:01;;;;;;;2.53;2.00;;;11.30;92.80;;;;;;5055169;28;20033;-68
2023/01/07 10:57:30;;;;;;;3.45;2.45;;;11.30;93.30;;;;;;5055352;28;20465;-68
2023/01/07 11:00:03;;;;;;;2.90;2.38;;;11.30;93.60;;;;;;5054740;28;20017;-66
2023/01/07 11:02:29;;;;;;;5.43;2.90;;;11.30;93.80;;;;;;5055258;28;20067;-67
2023/01/07 11:04:55;;;;;;;4.70;3.03;;;11.30;93.90;;;;;;5054470;28;20423;-67
2023/01/07 11:07:44;;;;;;;6.88;3.75;;;11.30;94.20;;;;;;5054913;28;20478;-67
2023/01/07 11:10:16;;;;;;;3.83;2.65;;;11.30;94.30;;;;;;5054649;28;20103;-66
2023/01/07 11:12:42;;;;;;;3.45;2.33;;;11.10;94.80;;;;;;5054451;28;20108;-67
2023/01/07 11:15:19;;;;;;;2.60;2.30;;;11.10;95.30;;;;;;5054488;28;20115;-67
2023/01/07 11:17:52;;;;;;;3.95;3.00;;;11.10;95.60;;;;;;5054744;28;20451;-66
2023/01/07 11:20:40;;;;;;;5.20;3.10;;;11.10;95.90;;;;;;5053692;28;20029;-67
2023/01/07 11:23:30;;;;;;;4.90;3.03;;;11.10;96.20;;;;;;5054370;28;20026;-67
2023/01/07 11:26:13;;;;;;;5.50;3.63;;;11.20;96.40;;;;;;5054346;28;20094;-67
2023/01/07 11:28:54;;;;;;;4.32;2.70;;;11.50;97.20;;;;;;5054669;28;20033;-67
2023/01/07 11:31:21;;;;;;;4.10;2.72;;;11.70;96.70;;;;;;5054708;28;20057;-67
2023/01/07 11:33:51;;;;;;;3.25;2.42;;;11.90;95.70;;;;;;5054262;28;20191;-67
2023/01/07 11:36:18;;;;;;;2.70;2.17;;;12.00;93.70;;;;;;5054115;28;20021;-67
2023/01/07 11:38:44;;;;;;;4.22;2.70;;;12.20;93.40;;;;;;5054403;28;20029;-66
2023/01/07 11:41:25;;;;;;;3.97;3.05;;;12.40;92.70;;;;;;5053738;28;20493;-67
2023/01/07 11:43:52;;;;;;;3.30;2.63;;;12.60;91.90;;;;;;5054145;28;20024;-67
2023/01/07 11:46:20;;;;;;;3.63;2.58;;;12.70;91.60;;;;;;5053947;28;20033;-66
2023/01/07 11:48:48;;;;;;;5.85;2.83;;;12.90;90.70;;;;;;5054373;28;20029;-67
2023/01/07 11:51:15;;;;;;;3.72;2.83;;;13.10;90.20;;;;;;5053828;28;20243;-67
2023/01/07 11:53:49;;;;;;;4.82;2.47;;;13.20;89.00;;;;;;5054166;28;20055;-67
2023/01/07 11:56:26;;;;;;;3.65;2.30;;;13.30;88.70;;;;;;5053539;28;20167;-67
2023/01/07 11:59:10;;;;;;;3.85;2.50;;;13.40;86.90;;;;;;5053971;28;20100;-67
2023/01/07 12:01:44;;;;;;;5.10;2.58;;;13.60;86.10;;;;;;5053267;28;20378;-67
2023/01/07 12:04:12;;;;;;;5.13;3.42;;;13.70;85.40;;;;;;5053370;28;20086;-68
2023/01/07 12:06:42;;;;;;;5.60;4.05;;;13.90;85.20;;;;;;5053925;28;20047;-67
2023/01/07 12:09:24;;;;;;;5.05;4.00;;;14.00;84.30;;;;;;5053393;28;20025;-67
2023/01/07 12:11:53;;;;;;;6.18;3.47;;;14.00;83.90;;;;;;5053693;28;20025;-67
2023/01/07 12:14:28;;;;;;;5.72;3.30;;;14.10;83.80;;;;;;5053445;28;20033;-67
2023/01/07 12:17:04;;;;;;;4.72;3.63;;;14.20;84.30;;;;;;5053355;28;20032;-67
2023/01/07 12:19:33;;;;;;;5.13;3.42;;;14.30;83.40;;;;;;5053576;28;20116;-67
2023/01/07 12:22:19;;;;;;;6.95;4.13;;;14.40;83.10;;;;;;5053260;28;20059;-67
2023/01/07 12:24:54;;;;;;;6.15;4.18;;;14.50;82.90;;;;;;5053094;28;20092;-67
2023/01/07 12:27:55;;;;;;;5.75;4.28;;;14.50;81.20;;;;;;5052841;28;20100;-67
2023/01/07 12:30:46;;;;;;;6.35;4.65;;;14.50;80.90;;;;;;5017983;28;20037;-66
2023/01/07 12:33:28;;;;;;;7.18;4.95;;;14.60;81.00;;;;;;5052984;28;20496;-66
2023/01/07 12:36:01;;;;;;;7.55;5.22;;;14.60;80.50;;;;;;5053643;28;20466;-67
2023/01/07 12:38:41;;;;;;;6.65;4.95;;;14.40;81.00;;;;;;5053640;28;20105;-67
2023/01/07 12:41:28;;;;;;;5.85;4.80;;;14.10;81.30;;;;;;5052842;28;20048;-67
2023/01/07 12:44:03;;;;;;;5.70;4.30;;;13.80;82.50;;;;;;5051947;28;20458;-67
2023/01/07 12:46:39;;;;;;;6.28;4.53;;;13.60;83.50;;;;;;5053102;28;20465;-67
2023/01/07 12:49:33;;;;;;;7.10;4.55;;;13.50;84.20;;;;;;5052300;28;20033;-67
2023/01/07 12:52:05;;;;;;;5.72;4.60;;;13.30;85.70;;;;;;5052695;28;20037;-71
2023/01/07 12:55:09;;;;;;;6.25;3.95;;;13.20;86.00;;;;;;5052685;28;20025;-67
2023/01/07 12:57:37;;;;;;;7.03;4.38;;;13.10;87.00;;;;;;5050379;28;20500;-66
2023/01/07 13:00:21;;;;;;;6.75;4.50;;;12.90;87.70;;;;;;5052475;28;20038;-67
2023/01/07 13:03:13;;;;;;;7.03;4.20;;;12.70;88.80;;;;;;5053060;28;20021;-67
2023/01/07 13:05:48;;;;;;;7.00;4.60;;;12.70;89.80;;;;;;5052872;28;20037;-67
2023/01/07 13:08:40;;;;;;;5.47;4.00;;;12.60;90.30;;;;;;5052366;28;20075;-68